sensor_id;sensor_type;location;lat;lon;timestamp;P1;durP1;ratioP1;P2;durP2;ratioP2
32138;SDS011;18644;48.700;9.210;2023-05-07T00:00:03;1.90;;;1.67;;
32138;SDS011;18644;48.700;9.210;2023-05-07T00:02:32;3.78;;;1.52;;
32138;SDS011;18644;48.700;9.210;2023-05-07T00:04:59;5.00;;;1.67;;
32138;SDS011;18644;48.700;9.210;2023-05-07T00:07:27;4.63;;;1.80;;
32138;SDS011;18644;48.700;9.210;2023-05-07T00:09:54;2.15;;;1.60;;
32138;SDS011;18644;48.700;9.210;2023-05-07T00:12:21;3.30;;;1.85;;
32138;SDS011;18644;48.700;9.210;2023-05-07T00:14:47;1.48;;;1.38;;
32138;SDS011;18644;48.700;9.210;2023-05-07T00:17:16;1.50;;;1.40;;
32138;SDS011;18644;48.700;9.210;2023-05-07T00:19:43;1.95;;;1.38;;
32138;SDS011;18644;48.700;9.210;2023-05-07T00:22:09;2.13;;;1.33;;
32138;SDS011;18644;48.700;9.210;2023-05-07T00:24:36;1.88;;;1.50;;
32138;SDS011;18644;48.700;9.210;2023-05-07T00:27:03;2.92;;;1.63;;
32138;SDS011;18644;48.700;9.210;2023-05-07T00:29:30;2.45;;;1.70;;
32138;SDS011;18644;48.700;9.210;2023-05-07T00:31:57;1.85;;;1.60;;
32138;SDS011;18644;48.700;9.210;2023-05-07T00:34:25;3.47;;;1.80;;
32138;SDS011;18644;48.700;9.210;2023-05-07T00:36:52;1.50;;;1.40;;
32138;SDS011;18644;48.700;9.210;2023-05-07T00:39:19;1.40;;;1.30;;
32138;SDS011;18644;48.700;9.210;2023-05-07T00:41:46;1.80;;;1.58;;
32138;SDS011;18644;48.700;9.210;2023-05-07T00:44:13;1.90;;;1.40;;
32138;SDS011;18644;48.700;9.210;2023-05-07T00:46:40;2.38;;;1.60;;
32138;SDS011;18644;48.700;9.210;2023-05-07T00:49:07;2.22;;;1.60;;
32138;SDS011;18644;48.700;9.210;2023-05-07T00:51:35;3.28;;;1.67;;
32138;SDS011;18644;48.700;9.210;2023-05-07T00:54:02;1.83;;;1.70;;
32138;SDS011;18644;48.700;9.210;2023-05-07T00:56:30;4.03;;;1.60;;
32138;SDS011;18644;48.700;9.210;2023-05-07T00:58:57;1.75;;;1.65;;
32138;SDS011;18644;48.700;9.210;2023-05-07T01:01:24;4.55;;;1.42;;
32138;SDS011;18644;48.700;9.210;2023-05-07T01:03:52;1.77;;;1.67;;
32138;SDS011;18644;48.700;9.210;2023-05-07T01:06:20;3.45;;;2.00;;
32138;SDS011;18644;48.700;9.210;2023-05-07T01:08:50;3.55;;;1.98;;
32138;SDS011;18644;48.700;9.210;2023-05-07T01:11:18;6.55;;;2.05;;
32138;SDS011;18644;48.700;9.210;2023-05-07T01:13:46;2.10;;;1.90;;
32138;SDS011;18644;48.700;9.210;2023-05-07T01:16:13;3.10;;;1.40;;
32138;SDS011;18644;48.700;9.210;2023-05-07T01:18:40;2.10;;;1.73;;
32138;SDS011;18644;48.700;9.210;2023-05-07T01:21:07;1.70;;;1.52;;
32138;SDS011;18644;48.700;9.210;2023-05-07T01:23:39;2.05;;;1.40;;
32138;SDS011;18644;48.700;9.210;2023-05-07T01:26:07;1.50;;;1.40;;
32138;SDS011;18644;48.700;9.210;2023-05-07T01:28:33;2.30;;;1.55;;
32138;SDS011;18644;48.700;9.210;2023-05-07T01:31:01;2.78;;;1.63;;
32138;SDS011;18644;48.700;9.210;2023-05-07T01:33:31;2.03;;;1.45;;
32138;SDS011;18644;48.700;9.210;2023-05-07T01:36:01;2.42;;;1.52;;
32138;SDS011;18644;48.700;9.210;2023-05-07T01:38:31;1.48;;;1.35;;
32138;SDS011;18644;48.700;9.210;2023-05-07T01:41:01;2.88;;;1.73;;
32138;SDS011;18644;48.700;9.210;2023-05-07T01:43:28;2.53;;;1.80;;
32138;SDS011;18644;48.700;9.210;2023-05-07T01:45:55;2.40;;;1.83;;
32138;SDS011;18644;48.700;9.210;2023-05-07T01:48:24;3.85;;;1.80;;
32138;SDS011;18644;48.700;9.210;2023-05-07T01:50:51;2.58;;;1.88;;
32138;SDS011;18644;48.700;9.210;2023-05-07T01:53:19;3.35;;;1.67;;
32138;SDS011;18644;48.700;9.210;2023-05-07T01:55:46;3.17;;;2.05;;
32138;SDS011;18644;48.700;9.210;2023-05-07T01:58:14;1.98;;;1.50;;
32138;SDS011;18644;48.700;9.210;2023-05-07T02:00:41;1.40;;;1.30;;
32138;SDS011;18644;48.700;9.210;2023-05-07T02:03:08;5.00;;;2.00;;
32138;SDS011;18644;48.700;9.210;2023-05-07T02:05:35;2.00;;;1.63;;
32138;SDS011;18644;48.700;9.210;2023-05-07T02:08:01;2.35;;;1.80;;
32138;SDS011;18644;48.700;9.210;2023-05-07T02:10:29;1.63;;;1.52;;
32138;SDS011;18644;48.700;9.210;2023-05-07T02:12:56;2.20;;;2.00;;
32138;SDS011;18644;48.700;9.210;2023-05-07T02:15:24;2.65;;;1.83;;
32138;SDS011;18644;48.700;9.210;2023-05-07T02:17:58;1.60;;;1.45;;
32138;SDS011;18644;48.700;9.210;2023-05-07T02:20:28;2.03;;;1.50;;
32138;SDS011;18644;48.700;9.210;2023-05-07T02:22:55;2.63;;;1.80;;
32138;SDS011;18644;48.700;9.210;2023-05-07T02:25:22;2.20;;;1.80;;
32138;SDS011;18644;48.700;9.210;2023-05-07T02:27:49;1.58;;;1.48;;
32138;SDS011;18644;48.700;9.210;2023-05-07T02:30:16;3.33;;;2.20;;
32138;SDS011;18644;48.700;9.210;2023-05-07T02:32:44;1.75;;;1.65;;
32138;SDS011;18644;48.700;9.210;2023-05-07T02:35:11;2.00;;;1.80;;
32138;SDS011;18644;48.700;9.210;2023-05-07T02:37:38;2.53;;;1.85;;
32138;SDS011;18644;48.700;9.210;2023-05-07T02:40:05;1.83;;;1.70;;
32138;SDS011;18644;48.700;9.210;2023-05-07T02:42:33;2.03;;;1.75;;
32138;SDS011;18644;48.700;9.210;2023-05-07T02:45:00;2.38;;;1.70;;
32138;SDS011;18644;48.700;9.210;2023-05-07T02:47:27;1.83;;;1.70;;
32138;SDS011;18644;48.700;9.210;2023-05-07T02:49:56;1.42;;;1.33;;
32138;SDS011;18644;48.700;9.210;2023-05-07T02:52:22;1.70;;;1.60;;
32138;SDS011;18644;48.700;9.210;2023-05-07T02:54:49;2.10;;;1.90;;
32138;SDS011;18644;48.700;9.210;2023-05-07T02:57:16;1.85;;;1.70;;
32138;SDS011;18644;48.700;9.210;2023-05-07T02:59:44;5.53;;;2.42;;
32138;SDS011;18644;48.700;9.210;2023-05-07T03:02:11;1.80;;;1.50;;
32138;SDS011;18644;48.700;9.210;2023-05-07T03:04:39;1.90;;;1.73;;
32138;SDS011;18644;48.700;9.210;2023-05-07T03:07:08;1.70;;;1.60;;
32138;SDS011;18644;48.700;9.210;2023-05-07T03:09:34;2.22;;;1.85;;
32138;SDS011;18644;48.700;9.210;2023-05-07T03:12:01;1.98;;;1.80;;
32138;SDS011;18644;48.700;9.210;2023-05-07T03:14:28;1.98;;;1.60;;
32138;SDS011;18644;48.700;9.210;2023-05-07T03:16:55;2.92;;;1.73;;
32138;SDS011;18644;48.700;9.210;2023-05-07T03:19:22;2.03;;;1.60;;
32138;SDS011;18644;48.700;9.210;2023-05-07T03:21:49;2.38;;;1.70;;
32138;SDS011;18644;48.700;9.210;2023-05-07T03:24:17;3.17;;;1.70;;
32138;SDS011;18644;48.700;9.210;2023-05-07T03:26:44;2.15;;;1.80;;
32138;SDS011;18644;48.700;9.210;2023-05-07T03:29:11;1.80;;;1.70;;
32138;SDS011;18644;48.700;9.210;2023-05-07T03:31:38;1.90;;;1.65;;
32138;SDS011;18644;48.700;9.210;2023-05-07T03:34:05;2.22;;;2.03;;
32138;SDS011;18644;48.700;9.210;2023-05-07T03:36:32;2.03;;;1.80;;
32138;SDS011;18644;48.700;9.210;2023-05-07T03:38:59;2.90;;;1.75;;
32138;SDS011;18644;48.700;9.210;2023-05-07T03:41:27;1.63;;;1.50;;
32138;SDS011;18644;48.700;9.210;2023-05-07T03:43:54;1.58;;;1.48;;
32138;SDS011;18644;48.700;9.210;2023-05-07T03:46:21;2.05;;;1.45;;
32138;SDS011;18644;48.700;9.210;2023-05-07T03:48:51;2.88;;;1.88;;
32138;SDS011;18644;48.700;9.210;2023-05-07T03:51:17;2.33;;;1.58;;
32138;SDS011;18644;48.700;9.210;2023-05-07T03:53:44;2.17;;;1.75;;
32138;SDS011;18644;48.700;9.210;2023-05-07T03:56:11;3.58;;;2.15;;
32138;SDS011;18644;48.700;9.210;2023-05-07T03:58:39;2.28;;;1.90;;
32138;SDS011;18644;48.700;9.210;2023-05-07T04:01:06;1.80;;;1.58;;
32138;SDS011;18644;48.700;9.210;2023-05-07T04:03:33;1.48;;;1.38;;
32138;SDS011;18644;48.700;9.210;2023-05-07T04:06:00;2.67;;;1.55;;
32138;SDS011;18644;48.700;9.210;2023-05-07T04:08:27;1.40;;;1.30;;
32138;SDS011;18644;48.700;9.210;2023-05-07T04:10:54;2.85;;;1.45;;
32138;SDS011;18644;48.700;9.210;2023-05-07T04:13:21;1.98;;;1.48;;
32138;SDS011;18644;48.700;9.210;2023-05-07T04:15:50;2.08;;;1.48;;
32138;SDS011;18644;48.700;9.210;2023-05-07T04:18:17;1.52;;;1.42;;
32138;SDS011;18644;48.700;9.210;2023-05-07T04:20:44;3.17;;;1.50;;
32138;SDS011;18644;48.700;9.210;2023-05-07T04:23:11;2.78;;;1.50;;
32138;SDS011;18644;48.700;9.210;2023-05-07T04:25:37;1.45;;;1.35;;
32138;SDS011;18644;48.700;9.210;2023-05-07T04:28:04;1.70;;;1.60;;
32138;SDS011;18644;48.700;9.210;2023-05-07T04:30:31;3.85;;;1.85;;
32138;SDS011;18644;48.700;9.210;2023-05-07T04:33:00;2.47;;;1.50;;
32138;SDS011;18644;48.700;9.210;2023-05-07T04:35:27;2.60;;;1.70;;
32138;SDS011;18644;48.700;9.210;2023-05-07T04:37:53;1.40;;;1.30;;
32138;SDS011;18644;48.700;9.210;2023-05-07T04:40:20;1.90;;;1.70;;
32138;SDS011;18644;48.700;9.210;2023-05-07T04:42:47;1.38;;;1.27;;
32138;SDS011;18644;48.700;9.210;2023-05-07T04:45:14;5.65;;;1.60;;
32138;SDS011;18644;48.700;9.210;2023-05-07T04:47:41;2.03;;;1.63;;
32138;SDS011;18644;48.700;9.210;2023-05-07T04:50:09;2.85;;;1.80;;
32138;SDS011;18644;48.700;9.210;2023-05-07T04:52:36;1.40;;;1.30;;
32138;SDS011;18644;48.700;9.210;2023-05-07T04:55:04;3.53;;;1.65;;
32138;SDS011;18644;48.700;9.210;2023-05-07T04:57:31;1.98;;;1.58;;
32138;SDS011;18644;48.700;9.210;2023-05-07T04:59:58;2.15;;;1.80;;
32138;SDS011;18644;48.700;9.210;2023-05-07T05:02:25;1.70;;;1.60;;
32138;SDS011;18644;48.700;9.210;2023-05-07T05:04:52;4.32;;;1.58;;
32138;SDS011;18644;48.700;9.210;2023-05-07T05:07:20;2.38;;;1.60;;
32138;SDS011;18644;48.700;9.210;2023-05-07T05:09:47;4.05;;;2.15;;
32138;SDS011;18644;48.700;9.210;2023-05-07T05:12:14;1.67;;;1.58;;
32138;SDS011;18644;48.700;9.210;2023-05-07T05:14:41;2.40;;;1.67;;
32138;SDS011;18644;48.700;9.210;2023-05-07T05:17:08;1.70;;;1.60;;
32138;SDS011;18644;48.700;9.210;2023-05-07T05:19:35;3.10;;;1.70;;
32138;SDS011;18644;48.700;9.210;2023-05-07T05:22:02;2.75;;;1.65;;
32138;SDS011;18644;48.700;9.210;2023-05-07T05:24:31;4.28;;;1.95;;
32138;SDS011;18644;48.700;9.210;2023-05-07T05:26:58;1.88;;;1.58;;
32138;SDS011;18644;48.700;9.210;2023-05-07T05:29:26;1.70;;;1.60;;
32138;SDS011;18644;48.700;9.210;2023-05-07T05:31:53;3.55;;;1.58;;
32138;SDS011;18644;48.700;9.210;2023-05-07T05:34:20;5.32;;;2.10;;
32138;SDS011;18644;48.700;9.210;2023-05-07T05:36:47;3.42;;;1.67;;
32138;SDS011;18644;48.700;9.210;2023-05-07T05:39:14;2.83;;;2.03;;
32138;SDS011;18644;48.700;9.210;2023-05-07T05:41:43;3.75;;;2.05;;
32138;SDS011;18644;48.700;9.210;2023-05-07T05:44:10;3.10;;;1.88;;
32138;SDS011;18644;48.700;9.210;2023-05-07T05:46:37;3.20;;;2.17;;
32138;SDS011;18644;48.700;9.210;2023-05-07T05:49:04;2.33;;;1.98;;
32138;SDS011;18644;48.700;9.210;2023-05-07T05:51:32;2.35;;;2.10;;
32138;SDS011;18644;48.700;9.210;2023-05-07T05:53:58;2.13;;;1.75;;
32138;SDS011;18644;48.700;9.210;2023-05-07T05:56:25;2.38;;;1.88;;
32138;SDS011;18644;48.700;9.210;2023-05-07T05:58:54;2.70;;;2.38;;
32138;SDS011;18644;48.700;9.210;2023-05-07T06:01:21;2.22;;;1.95;;
32138;SDS011;18644;48.700;9.210;2023-05-07T06:03:48;2.42;;;2.00;;
32138;SDS011;18644;48.700;9.210;2023-05-07T06:06:15;1.92;;;1.70;;
32138;SDS011;18644;48.700;9.210;2023-05-07T06:08:42;2.30;;;2.10;;
32138;SDS011;18644;48.700;9.210;2023-05-07T06:11:08;2.22;;;1.83;;
32138;SDS011;18644;48.700;9.210;2023-05-07T06:13:35;2.03;;;1.83;;
32138;SDS011;18644;48.700;9.210;2023-05-07T06:16:04;2.13;;;1.80;;
32138;SDS011;18644;48.700;9.210;2023-05-07T06:18:32;4.07;;;1.88;;
32138;SDS011;18644;48.700;9.210;2023-05-07T06:21:01;1.77;;;1.67;;
32138;SDS011;18644;48.700;9.210;2023-05-07T06:23:28;1.63;;;1.52;;
32138;SDS011;18644;48.700;9.210;2023-05-07T06:25:55;2.95;;;1.85;;
32138;SDS011;18644;48.700;9.210;2023-05-07T06:28:21;2.58;;;1.80;;
32138;SDS011;18644;48.700;9.210;2023-05-07T06:30:48;2.75;;;1.90;;
32138;SDS011;18644;48.700;9.210;2023-05-07T06:33:17;1.50;;;1.40;;
32138;SDS011;18644;48.700;9.210;2023-05-07T06:35:44;2.50;;;1.48;;
32138;SDS011;18644;48.700;9.210;2023-05-07T06:38:11;2.03;;;1.80;;
32138;SDS011;18644;48.700;9.210;2023-05-07T06:40:38;1.77;;;1.67;;
32138;SDS011;18644;48.700;9.210;2023-05-07T06:43:05;2.92;;;1.70;;
32138;SDS011;18644;48.700;9.210;2023-05-07T06:45:32;3.25;;;2.08;;
32138;SDS011;18644;48.700;9.210;2023-05-07T06:47:58;2.85;;;1.95;;
32138;SDS011;18644;48.700;9.210;2023-05-07T06:50:27;2.30;;;1.90;;
32138;SDS011;18644;48.700;9.210;2023-05-07T06:52:53;2.15;;;1.90;;
32138;SDS011;18644;48.700;9.210;2023-05-07T06:55:20;1.75;;;1.63;;
32138;SDS011;18644;48.700;9.210;2023-05-07T06:57:47;2.15;;;1.88;;
32138;SDS011;18644;48.700;9.210;2023-05-07T07:00:14;2.63;;;1.73;;
32138;SDS011;18644;48.700;9.210;2023-05-07T07:02:42;2.40;;;1.75;;
32138;SDS011;18644;48.700;9.210;2023-05-07T07:05:09;2.05;;;1.85;;
32138;SDS011;18644;48.700;9.210;2023-05-07T07:07:38;3.85;;;2.15;;
32138;SDS011;18644;48.700;9.210;2023-05-07T07:10:05;5.20;;;1.73;;
32138;SDS011;18644;48.700;9.210;2023-05-07T07:12:33;2.70;;;1.90;;
32138;SDS011;18644;48.700;9.210;2023-05-07T07:15:00;2.50;;;1.67;;
32138;SDS011;18644;48.700;9.210;2023-05-07T07:17:27;2.70;;;2.05;;
32138;SDS011;18644;48.700;9.210;2023-05-07T07:19:54;1.70;;;1.60;;
32138;SDS011;18644;48.700;9.210;2023-05-07T07:22:21;1.63;;;1.52;;
32138;SDS011;18644;48.700;9.210;2023-05-07T07:24:49;1.65;;;1.55;;
32138;SDS011;18644;48.700;9.210;2023-05-07T07:27:16;2.78;;;2.28;;
32138;SDS011;18644;48.700;9.210;2023-05-07T07:29:43;2.40;;;1.88;;
32138;SDS011;18644;48.700;9.210;2023-05-07T07:32:10;2.92;;;1.58;;
32138;SDS011;18644;48.700;9.210;2023-05-07T07:34:37;2.70;;;2.10;;
32138;SDS011;18644;48.700;9.210;2023-05-07T07:37:04;3.25;;;2.10;;
32138;SDS011;18644;48.700;9.210;2023-05-07T07:39:31;1.65;;;1.55;;
32138;SDS011;18644;48.700;9.210;2023-05-07T07:42:00;3.35;;;1.60;;
32138;SDS011;18644;48.700;9.210;2023-05-07T07:44:27;2.35;;;1.85;;
32138;SDS011;18644;48.700;9.210;2023-05-07T07:46:54;3.00;;;1.75;;
32138;SDS011;18644;48.700;9.210;2023-05-07T07:49:22;2.10;;;1.83;;
32138;SDS011;18644;48.700;9.210;2023-05-07T07:51:48;2.03;;;1.73;;
32138;SDS011;18644;48.700;9.210;2023-05-07T07:54:16;2.17;;;1.67;;
32138;SDS011;18644;48.700;9.210;2023-05-07T07:56:43;3.42;;;1.90;;
32138;SDS011;18644;48.700;9.210;2023-05-07T07:59:11;2.28;;;1.60;;
32138;SDS011;18644;48.700;9.210;2023-05-07T08:01:38;2.42;;;1.73;;
32138;SDS011;18644;48.700;9.210;2023-05-07T08:04:05;2.15;;;1.73;;
32138;SDS011;18644;48.700;9.210;2023-05-07T08:06:32;2.30;;;1.70;;
32138;SDS011;18644;48.700;9.210;2023-05-07T08:08:59;11.18;;;2.50;;
32138;SDS011;18644;48.700;9.210;2023-05-07T08:11:27;2.47;;;1.92;;
32138;SDS011;18644;48.700;9.210;2023-05-07T08:13:54;2.88;;;1.98;;
32138;SDS011;18644;48.700;9.210;2023-05-07T08:16:23;1.98;;;1.30;;
32138;SDS011;18644;48.700;9.210;2023-05-07T08:18:50;2.33;;;1.80;;
32138;SDS011;18644;48.700;9.210;2023-05-07T08:21:17;1.88;;;1.67;;
32138;SDS011;18644;48.700;9.210;2023-05-07T08:23:45;1.90;;;1.55;;
32138;SDS011;18644;48.700;9.210;2023-05-07T08:26:12;2.80;;;1.75;;
32138;SDS011;18644;48.700;9.210;2023-05-07T08:28:39;2.63;;;1.60;;
32138;SDS011;18644;48.700;9.210;2023-05-07T08:31:06;2.05;;;1.50;;
32138;SDS011;18644;48.700;9.210;2023-05-07T08:33:34;3.25;;;1.60;;
32138;SDS011;18644;48.700;9.210;2023-05-07T08:36:01;1.50;;;1.40;;
32138;SDS011;18644;48.700;9.210;2023-05-07T08:38:28;1.70;;;1.60;;
32138;SDS011;18644;48.700;9.210;2023-05-07T08:40:55;2.10;;;1.73;;
32138;SDS011;18644;48.700;9.210;2023-05-07T08:43:22;3.30;;;1.63;;
32138;SDS011;18644;48.700;9.210;2023-05-07T08:45:56;2.30;;;1.80;;
32138;SDS011;18644;48.700;9.210;2023-05-07T08:48:29;2.20;;;1.60;;
32138;SDS011;18644;48.700;9.210;2023-05-07T08:50:58;2.45;;;1.60;;
32138;SDS011;18644;48.700;9.210;2023-05-07T08:53:25;3.08;;;1.95;;
32138;SDS011;18644;48.700;9.210;2023-05-07T08:55:52;1.50;;;1.40;;
32138;SDS011;18644;48.700;9.210;2023-05-07T08:58:19;2.88;;;1.60;;
32138;SDS011;18644;48.700;9.210;2023-05-07T09:00:46;1.42;;;1.33;;
32138;SDS011;18644;48.700;9.210;2023-05-07T09:03:13;2.92;;;1.80;;
32138;SDS011;18644;48.700;9.210;2023-05-07T09:05:40;2.13;;;1.60;;
32138;SDS011;18644;48.700;9.210;2023-05-07T09:08:10;3.72;;;1.65;;
32138;SDS011;18644;48.700;9.210;2023-05-07T09:10:41;1.45;;;1.30;;
32138;SDS011;18644;48.700;9.210;2023-05-07T09:13:08;1.50;;;1.25;;
32138;SDS011;18644;48.700;9.210;2023-05-07T09:15:38;2.90;;;1.33;;
32138;SDS011;18644;48.700;9.210;2023-05-07T09:18:05;1.40;;;1.30;;
32138;SDS011;18644;48.700;9.210;2023-05-07T09:20:32;1.60;;;1.33;;
32138;SDS011;18644;48.700;9.210;2023-05-07T09:22:59;1.30;;;1.20;;
32138;SDS011;18644;48.700;9.210;2023-05-07T09:25:30;1.30;;;1.20;;
32138;SDS011;18644;48.700;9.210;2023-05-07T09:27:59;1.38;;;1.15;;
32138;SDS011;18644;48.700;9.210;2023-05-07T09:30:27;0.68;;;0.68;;
32138;SDS011;18644;48.700;9.210;2023-05-07T09:32:55;1.38;;;1.27;;
32138;SDS011;18644;48.700;9.210;2023-05-07T09:35:22;1.20;;;1.10;;
32138;SDS011;18644;48.700;9.210;2023-05-07T09:37:52;2.42;;;1.20;;
32138;SDS011;18644;48.700;9.210;2023-05-07T09:40:20;0.90;;;0.90;;
32138;SDS011;18644;48.700;9.210;2023-05-07T09:42:49;1.25;;;0.80;;
32138;SDS011;18644;48.700;9.210;2023-05-07T09:45:21;1.02;;;0.88;;
32138;SDS011;18644;48.700;9.210;2023-05-07T09:47:48;1.20;;;1.10;;
32138;SDS011;18644;48.700;9.210;2023-05-07T09:50:20;4.95;;;1.15;;
32138;SDS011;18644;48.700;9.210;2023-05-07T09:52:52;1.10;;;1.00;;
32138;SDS011;18644;48.700;9.210;2023-05-07T09:55:21;1.02;;;0.85;;
32138;SDS011;18644;48.700;9.210;2023-05-07T09:57:50;1.50;;;1.17;;
32138;SDS011;18644;48.700;9.210;2023-05-07T10:00:21;3.47;;;1.00;;
32138;SDS011;18644;48.700;9.210;2023-05-07T10:02:49;1.58;;;0.80;;
32138;SDS011;18644;48.700;9.210;2023-05-07T10:05:18;0.90;;;0.90;;
32138;SDS011;18644;48.700;9.210;2023-05-07T10:07:45;0.80;;;0.80;;
32138;SDS011;18644;48.700;9.210;2023-05-07T10:10:12;0.88;;;0.70;;
32138;SDS011;18644;48.700;9.210;2023-05-07T10:12:41;0.90;;;0.90;;
32138;SDS011;18644;48.700;9.210;2023-05-07T10:15:10;0.80;;;0.70;;
32138;SDS011;18644;48.700;9.210;2023-05-07T10:17:39;1.10;;;1.00;;
32138;SDS011;18644;48.700;9.210;2023-05-07T10:20:07;1.15;;;0.90;;
32138;SDS011;18644;48.700;9.210;2023-05-07T10:22:37;1.15;;;1.05;;
32138;SDS011;18644;48.700;9.210;2023-05-07T10:25:09;0.60;;;0.60;;
32138;SDS011;18644;48.700;9.210;2023-05-07T10:27:44;2.25;;;0.90;;
32138;SDS011;18644;48.700;9.210;2023-05-07T10:30:22;0.80;;;0.80;;
32138;SDS011;18644;48.700;9.210;2023-05-07T10:33:03;0.82;;;0.80;;
32138;SDS011;18644;48.700;9.210;2023-05-07T10:38:05;1.10;;;1.00;;
32138;SDS011;18644;48.700;9.210;2023-05-07T10:40:33;1.75;;;0.80;;
32138;SDS011;18644;48.700;9.210;2023-05-07T10:43:01;2.05;;;0.90;;
32138;SDS011;18644;48.700;9.210;2023-05-07T10:45:31;0.65;;;0.65;;
32138;SDS011;18644;48.700;9.210;2023-05-07T10:48:09;0.82;;;0.82;;
32138;SDS011;18644;48.700;9.210;2023-05-07T10:50:38;1.00;;;0.90;;
32138;SDS011;18644;48.700;9.210;2023-05-07T10:58:52;1.67;;;0.80;;
32138;SDS011;18644;48.700;9.210;2023-05-07T11:01:50;1.10;;;1.00;;
32138;SDS011;18644;48.700;9.210;2023-05-07T11:04:19;1.02;;;0.82;;
32138;SDS011;18644;48.700;9.210;2023-05-07T11:09:54;1.02;;;0.90;;
32138;SDS011;18644;48.700;9.210;2023-05-07T11:15:33;1.27;;;0.90;;
32138;SDS011;18644;48.700;9.210;2023-05-07T11:18:11;1.13;;;0.98;;
32138;SDS011;18644;48.700;9.210;2023-05-07T11:20:46;1.10;;;0.95;;
32138;SDS011;18644;48.700;9.210;2023-05-07T11:26:24;1.05;;;0.95;;
32138;SDS011;18644;48.700;9.210;2023-05-07T11:28:52;1.02;;;0.93;;
32138;SDS011;18644;48.700;9.210;2023-05-07T11:31:20;1.30;;;1.08;;
32138;SDS011;18644;48.700;9.210;2023-05-07T11:33:51;0.90;;;0.70;;
32138;SDS011;18644;48.700;9.210;2023-05-07T11:36:19;1.02;;;0.80;;
32138;SDS011;18644;48.700;9.210;2023-05-07T11:38:47;1.15;;;1.05;;
32138;SDS011;18644;48.700;9.210;2023-05-07T11:41:15;1.30;;;1.05;;
32138;SDS011;18644;48.700;9.210;2023-05-07T11:43:54;3.28;;;0.98;;
32138;SDS011;18644;48.700;9.210;2023-05-07T11:46:22;2.00;;;1.10;;
32138;SDS011;18644;48.700;9.210;2023-05-07T11:48:51;1.30;;;0.95;;
32138;SDS011;18644;48.700;9.210;2023-05-07T11:51:18;0.88;;;0.88;;
32138;SDS011;18644;48.700;9.210;2023-05-07T11:53:46;1.45;;;1.23;;
32138;SDS011;18644;48.700;9.210;2023-05-07T11:56:14;0.82;;;0.82;;
32138;SDS011;18644;48.700;9.210;2023-05-07T11:58:44;1.15;;;0.70;;
32138;SDS011;18644;48.700;9.210;2023-05-07T12:01:13;1.08;;;0.90;;
32138;SDS011;18644;48.700;9.210;2023-05-07T12:03:41;1.77;;;0.93;;
32138;SDS011;18644;48.700;9.210;2023-05-07T12:06:12;0.95;;;0.80;;
32138;SDS011;18644;48.700;9.210;2023-05-07T12:08:41;1.00;;;0.90;;
32138;SDS011;18644;48.700;9.210;2023-05-07T12:11:09;0.88;;;0.88;;
32138;SDS011;18644;48.700;9.210;2023-05-07T12:13:42;1.00;;;0.75;;
32138;SDS011;18644;48.700;9.210;2023-05-07T12:16:09;1.00;;;0.90;;
32138;SDS011;18644;48.700;9.210;2023-05-07T12:18:37;0.88;;;0.80;;
32138;SDS011;18644;48.700;9.210;2023-05-07T12:21:04;1.88;;;0.80;;
32138;SDS011;18644;48.700;9.210;2023-05-07T12:23:34;2.92;;;0.82;;
32138;SDS011;18644;48.700;9.210;2023-05-07T12:26:03;1.33;;;1.00;;
32138;SDS011;18644;48.700;9.210;2023-05-07T12:28:35;1.40;;;1.10;;
32138;SDS011;18644;48.700;9.210;2023-05-07T12:31:04;1.10;;;1.00;;
32138;SDS011;18644;48.700;9.210;2023-05-07T12:33:32;1.10;;;1.00;;
32138;SDS011;18644;48.700;9.210;2023-05-07T12:36:02;2.33;;;1.10;;
32138;SDS011;18644;48.700;9.210;2023-05-07T12:38:35;1.25;;;0.80;;
32138;SDS011;18644;48.700;9.210;2023-05-07T12:41:03;1.20;;;0.77;;
32138;SDS011;18644;48.700;9.210;2023-05-07T12:43:32;0.77;;;0.77;;
32138;SDS011;18644;48.700;9.210;2023-05-07T12:45:59;1.13;;;0.93;;
32138;SDS011;18644;48.700;9.210;2023-05-07T12:48:29;2.08;;;0.88;;
32138;SDS011;18644;48.700;9.210;2023-05-07T12:50:57;1.40;;;0.80;;
32138;SDS011;18644;48.700;9.210;2023-05-07T12:53:26;1.23;;;0.52;;
32138;SDS011;18644;48.700;9.210;2023-05-07T12:55:55;3.35;;;0.73;;
32138;SDS011;18644;48.700;9.210;2023-05-07T12:58:24;1.75;;;0.88;;
32138;SDS011;18644;48.700;9.210;2023-05-07T13:00:54;1.85;;;0.88;;
32138;SDS011;18644;48.700;9.210;2023-05-07T13:03:24;0.95;;;0.70;;
32138;SDS011;18644;48.700;9.210;2023-05-07T13:05:54;1.23;;;0.80;;
32138;SDS011;18644;48.700;9.210;2023-05-07T13:08:24;4.47;;;0.95;;
32138;SDS011;18644;48.700;9.210;2023-05-07T13:10:57;4.22;;;0.70;;
32138;SDS011;18644;48.700;9.210;2023-05-07T13:13:28;1.63;;;0.93;;
32138;SDS011;18644;48.700;9.210;2023-05-07T13:15:55;1.05;;;0.70;;
32138;SDS011;18644;48.700;9.210;2023-05-07T13:18:22;1.35;;;0.98;;
32138;SDS011;18644;48.700;9.210;2023-05-07T13:20:50;3.10;;;0.98;;
32138;SDS011;18644;48.700;9.210;2023-05-07T13:23:17;1.00;;;0.90;;
32138;SDS011;18644;48.700;9.210;2023-05-07T13:25:44;1.85;;;0.65;;
32138;SDS011;18644;48.700;9.210;2023-05-07T13:28:12;2.13;;;0.95;;
32138;SDS011;18644;48.700;9.210;2023-05-07T13:30:39;1.75;;;0.93;;
32138;SDS011;18644;48.700;9.210;2023-05-07T13:33:07;0.93;;;0.80;;
32138;SDS011;18644;48.700;9.210;2023-05-07T13:35:34;0.80;;;0.77;;
32138;SDS011;18644;48.700;9.210;2023-05-07T13:38:01;2.67;;;1.08;;
32138;SDS011;18644;48.700;9.210;2023-05-07T13:40:28;0.60;;;0.60;;
32138;SDS011;18644;48.700;9.210;2023-05-07T13:42:56;0.70;;;0.70;;
32138;SDS011;18644;48.700;9.210;2023-05-07T13:45:27;2.05;;;0.80;;
32138;SDS011;18644;48.700;9.210;2023-05-07T13:47:54;1.67;;;0.90;;
32138;SDS011;18644;48.700;9.210;2023-05-07T13:50:22;1.05;;;0.80;;
32138;SDS011;18644;48.700;9.210;2023-05-07T13:52:49;1.55;;;0.77;;
32138;SDS011;18644;48.700;9.210;2023-05-07T13:55:16;2.22;;;1.13;;
32138;SDS011;18644;48.700;9.210;2023-05-07T13:57:44;2.10;;;0.80;;
32138;SDS011;18644;48.700;9.210;2023-05-07T14:00:11;2.88;;;1.05;;
32138;SDS011;18644;48.700;9.210;2023-05-07T14:02:40;2.88;;;1.40;;
32138;SDS011;18644;48.700;9.210;2023-05-07T14:05:07;1.63;;;1.10;;
32138;SDS011;18644;48.700;9.210;2023-05-07T14:07:35;1.13;;;0.77;;
32138;SDS011;18644;48.700;9.210;2023-05-07T14:10:02;3.30;;;1.00;;
32138;SDS011;18644;48.700;9.210;2023-05-07T14:12:30;0.75;;;0.75;;
32138;SDS011;18644;48.700;9.210;2023-05-07T14:14:57;2.63;;;1.15;;
32138;SDS011;18644;48.700;9.210;2023-05-07T14:17:24;2.22;;;1.02;;
32138;SDS011;18644;48.700;9.210;2023-05-07T14:19:53;2.08;;;1.00;;
32138;SDS011;18644;48.700;9.210;2023-05-07T14:22:21;2.67;;;1.10;;
32138;SDS011;18644;48.700;9.210;2023-05-07T14:24:48;2.58;;;1.00;;
32138;SDS011;18644;48.700;9.210;2023-05-07T14:27:16;2.72;;;1.08;;
32138;SDS011;18644;48.700;9.210;2023-05-07T14:29:44;0.80;;;0.80;;
32138;SDS011;18644;48.700;9.210;2023-05-07T14:32:15;1.60;;;1.00;;
32138;SDS011;18644;48.700;9.210;2023-05-07T14:34:43;2.72;;;1.13;;
32138;SDS011;18644;48.700;9.210;2023-05-07T14:37:11;1.70;;;1.20;;
32138;SDS011;18644;48.700;9.210;2023-05-07T14:39:38;4.40;;;0.98;;
32138;SDS011;18644;48.700;9.210;2023-05-07T14:42:05;0.75;;;0.73;;
32138;SDS011;18644;48.700;9.210;2023-05-07T14:44:33;1.98;;;0.85;;
32138;SDS011;18644;48.700;9.210;2023-05-07T14:47:00;1.15;;;0.52;;
32138;SDS011;18644;48.700;9.210;2023-05-07T14:49:27;2.10;;;0.80;;
32138;SDS011;18644;48.700;9.210;2023-05-07T14:51:56;1.13;;;0.77;;
32138;SDS011;18644;48.700;9.210;2023-05-07T14:54:26;1.13;;;0.98;;
32138;SDS011;18644;48.700;9.210;2023-05-07T14:56:53;1.27;;;0.85;;
32138;SDS011;18644;48.700;9.210;2023-05-07T14:59:21;1.00;;;0.90;;
32138;SDS011;18644;48.700;9.210;2023-05-07T15:01:50;1.42;;;1.02;;
32138;SDS011;18644;48.700;9.210;2023-05-07T15:04:17;1.02;;;0.90;;
32138;SDS011;18644;48.700;9.210;2023-05-07T15:06:44;3.20;;;1.25;;
32138;SDS011;18644;48.700;9.210;2023-05-07T15:09:11;2.08;;;1.23;;